sensor_id;sensor_type;location;lat;lon;timestamp;temperature;humidity
4501;DHT22;2263;54.654;9.410;2023-05-31T00:02:15;17.00;60.60
4501;DHT22;2263;54.654;9.410;2023-05-31T00:04:43;17.00;60.50
4501;DHT22;2263;54.654;9.410;2023-05-31T00:07:11;17.00;60.20
4501;DHT22;2263;54.654;9.410;2023-05-31T00:09:38;16.90;60.30
4501;DHT22;2263;54.654;9.410;2023-05-31T00:12:06;16.90;60.30
4501;DHT22;2263;54.654;9.410;2023-05-31T00:14:34;16.90;60.40
4501;DHT22;2263;54.654;9.410;2023-05-31T00:17:01;16.90;60.50
4501;DHT22;2263;54.654;9.410;2023-05-31T00:19:49;16.90;60.50
4501;DHT22;2263;54.654;9.410;2023-05-31T00:22:17;16.80;60.50
4501;DHT22;2263;54.654;9.410;2023-05-31T00:24:48;16.80;60.60
4501;DHT22;2263;54.654;9.410;2023-05-31T00:27:15;16.80;60.30
4501;DHT22;2263;54.654;9.410;2023-05-31T00:29:43;16.70;60.40
4501;DHT22;2263;54.654;9.410;2023-05-31T00:32:10;16.70;60.70
4501;DHT22;2263;54.654;9.410;2023-05-31T00:34:38;16.70;60.50
4501;DHT22;2263;54.654;9.410;2023-05-31T00:37:06;16.70;60.20
4501;DHT22;2263;54.654;9.410;2023-05-31T00:39:33;16.70;60.60
4501;DHT22;2263;54.654;9.410;2023-05-31T00:42:01;16.60;60.50
4501;DHT22;2263;54.654;9.410;2023-05-31T00:44:29;16.60;60.50
4501;DHT22;2263;54.654;9.410;2023-05-31T00:46:57;16.60;60.30
4501;DHT22;2263;54.654;9.410;2023-05-31T00:49:25;16.50;60.40
4501;DHT22;2263;54.654;9.410;2023-05-31T00:51:54;16.50;60.10
4501;DHT22;2263;54.654;9.410;2023-05-31T00:54:22;16.50;61.00
4501;DHT22;2263;54.654;9.410;2023-05-31T00:56:50;16.50;60.50
4501;DHT22;2263;54.654;9.410;2023-05-31T00:59:18;16.40;61.00
4501;DHT22;2263;54.654;9.410;2023-05-31T01:01:46;16.40;60.40
4501;DHT22;2263;54.654;9.410;2023-05-31T01:04:13;16.40;60.00
4501;DHT22;2263;54.654;9.410;2023-05-31T01:06:41;16.40;60.20
4501;DHT22;2263;54.654;9.410;2023-05-31T01:09:10;16.30;60.30
4501;DHT22;2263;54.654;9.410;2023-05-31T01:12:38;16.30;60.00
4501;DHT22;2263;54.654;9.410;2023-05-31T01:20:04;16.20;60.10
4501;DHT22;2263;54.654;9.410;2023-05-31T01:28:00;16.20;60.30
4501;DHT22;2263;54.654;9.410;2023-05-31T01:30:33;16.20;60.20
4501;DHT22;2263;54.654;9.410;2023-05-31T01:33:07;16.10;60.30
4501;DHT22;2263;54.654;9.410;2023-05-31T01:35:36;16.10;60.10
4501;DHT22;2263;54.654;9.410;2023-05-31T01:38:03;16.10;60.30
4501;DHT22;2263;54.654;9.410;2023-05-31T01:40:31;16.00;59.90
4501;DHT22;2263;54.654;9.410;2023-05-31T01:43:02;16.00;60.20
4501;DHT22;2263;54.654;9.410;2023-05-31T01:45:31;16.00;60.10
4501;DHT22;2263;54.654;9.410;2023-05-31T01:48:02;16.00;60.30
4501;DHT22;2263;54.654;9.410;2023-05-31T01:50:35;16.00;60.30
4501;DHT22;2263;54.654;9.410;2023-05-31T01:53:04;15.90;60.50
4501;DHT22;2263;54.654;9.410;2023-05-31T01:55:38;15.90;60.30
4501;DHT22;2263;54.654;9.410;2023-05-31T01:58:06;15.90;60.60
4501;DHT22;2263;54.654;9.410;2023-05-31T02:00:35;15.90;60.50
4501;DHT22;2263;54.654;9.410;2023-05-31T02:03:04;15.80;60.50
4501;DHT22;2263;54.654;9.410;2023-05-31T02:05:32;15.80;60.70
4501;DHT22;2263;54.654;9.410;2023-05-31T02:08:00;15.80;60.20
4501;DHT22;2263;54.654;9.410;2023-05-31T02:10:28;15.80;60.30
4501;DHT22;2263;54.654;9.410;2023-05-31T02:12:55;15.80;60.50
4501;DHT22;2263;54.654;9.410;2023-05-31T02:15:23;15.70;60.30
4501;DHT22;2263;54.654;9.410;2023-05-31T02:17:51;15.70;60.30
4501;DHT22;2263;54.654;9.410;2023-05-31T02:20:18;15.70;60.60
4501;DHT22;2263;54.654;9.410;2023-05-31T02:22:46;15.70;60.50
4501;DHT22;2263;54.654;9.410;2023-05-31T02:25:14;15.70;60.50
4501;DHT22;2263;54.654;9.410;2023-05-31T02:27:42;15.60;60.70
4501;DHT22;2263;54.654;9.410;2023-05-31T02:30:11;15.60;60.50
4501;DHT22;2263;54.654;9.410;2023-05-31T02:32:38;15.60;60.60
4501;DHT22;2263;54.654;9.410;2023-05-31T02:35:11;15.60;60.40
4501;DHT22;2263;54.654;9.410;2023-05-31T02:37:39;15.50;60.60
4501;DHT22;2263;54.654;9.410;2023-05-31T02:40:07;15.50;60.70
4501;DHT22;2263;54.654;9.410;2023-05-31T02:42:38;15.50;60.70
4501;DHT22;2263;54.654;9.410;2023-05-31T02:45:07;15.40;60.80
4501;DHT22;2263;54.654;9.410;2023-05-31T02:47:36;15.40;60.60
4501;DHT22;2263;54.654;9.410;2023-05-31T02:50:05;15.40;60.90
4501;DHT22;2263;54.654;9.410;2023-05-31T02:52:34;15.40;60.80
4501;DHT22;2263;54.654;9.410;2023-05-31T02:55:02;15.40;60.70
4501;DHT22;2263;54.654;9.410;2023-05-31T02:57:29;15.30;60.70
4501;DHT22;2263;54.654;9.410;2023-05-31T03:00:00;15.30;60.80
4501;DHT22;2263;54.654;9.410;2023-05-31T03:02:28;15.30;60.60
4501;DHT22;2263;54.654;9.410;2023-05-31T03:04:56;15.30;60.80
4501;DHT22;2263;54.654;9.410;2023-05-31T03:07:24;15.30;60.90
4501;DHT22;2263;54.654;9.410;2023-05-31T03:09:51;15.20;60.80
4501;DHT22;2263;54.654;9.410;2023-05-31T03:12:19;15.20;60.80
4501;DHT22;2263;54.654;9.410;2023-05-31T03:14:47;15.20;60.80
4501;DHT22;2263;54.654;9.410;2023-05-31T03:17:15;15.20;60.70
4501;DHT22;2263;54.654;9.410;2023-05-31T03:19:42;15.20;60.70
4501;DHT22;2263;54.654;9.410;2023-05-31T03:22:10;15.10;60.50
4501;DHT22;2263;54.654;9.410;2023-05-31T03:24:38;15.10;60.80
4501;DHT22;2263;54.654;9.410;2023-05-31T03:27:06;15.10;61.10
4501;DHT22;2263;54.654;9.410;2023-05-31T03:29:40;15.10;60.60
4501;DHT22;2263;54.654;9.410;2023-05-31T03:32:08;15.00;60.60
4501;DHT22;2263;54.654;9.410;2023-05-31T03:34:36;15.10;60.80
4501;DHT22;2263;54.654;9.410;2023-05-31T03:37:04;15.00;60.70
4501;DHT22;2263;54.654;9.410;2023-05-31T03:39:31;15.00;60.80
4501;DHT22;2263;54.654;9.410;2023-05-31T03:42:00;14.90;60.70
4501;DHT22;2263;54.654;9.410;2023-05-31T03:44:29;14.90;60.80
4501;DHT22;2263;54.654;9.410;2023-05-31T03:46:57;14.90;60.80
4501;DHT22;2263;54.654;9.410;2023-05-31T03:49:25;14.90;61.50
4501;DHT22;2263;54.654;9.410;2023-05-31T03:51:53;14.90;61.00
4501;DHT22;2263;54.654;9.410;2023-05-31T03:54:21;14.80;60.80
4501;DHT22;2263;54.654;9.410;2023-05-31T03:56:48;14.80;60.90
4501;DHT22;2263;54.654;9.410;2023-05-31T03:59:16;14.80;60.90
4501;DHT22;2263;54.654;9.410;2023-05-31T04:01:44;14.80;60.80
4501;DHT22;2263;54.654;9.410;2023-05-31T04:04:11;14.80;61.00
4501;DHT22;2263;54.654;9.410;2023-05-31T04:06:40;14.80;61.20
4501;DHT22;2263;54.654;9.410;2023-05-31T04:09:07;14.70;61.00
4501;DHT22;2263;54.654;9.410;2023-05-31T04:11:35;14.70;61.10
4501;DHT22;2263;54.654;9.410;2023-05-31T04:14:03;14.70;61.10
4501;DHT22;2263;54.654;9.410;2023-05-31T04:16:30;14.70;61.20
4501;DHT22;2263;54.654;9.410;2023-05-31T04:18:58;14.70;61.40
4501;DHT22;2263;54.654;9.410;2023-05-31T04:21:26;14.70;61.30
4501;DHT22;2263;54.654;9.410;2023-05-31T04:23:53;14.70;61.40
4501;DHT22;2263;54.654;9.410;2023-05-31T04:26:21;14.60;61.40
4501;DHT22;2263;54.654;9.410;2023-05-31T04:28:49;14.60;61.50
4501;DHT22;2263;54.654;9.410;2023-05-31T04:31:21;14.60;61.50
4501;DHT22;2263;54.654;9.410;2023-05-31T04:34:08;14.60;61.60
4501;DHT22;2263;54.654;9.410;2023-05-31T04:36:37;14.60;61.70
4501;DHT22;2263;54.654;9.410;2023-05-31T04:39:06;14.60;61.80
4501;DHT22;2263;54.654;9.410;2023-05-31T04:41:40;14.50;61.70
4501;DHT22;2263;54.654;9.410;2023-05-31T04:44:07;14.50;62.00
4501;DHT22;2263;54.654;9.410;2023-05-31T04:46:35;14.50;61.80
4501;DHT22;2263;54.654;9.410;2023-05-31T04:49:03;14.50;62.00
4501;DHT22;2263;54.654;9.410;2023-05-31T04:51:31;14.50;62.10
4501;DHT22;2263;54.654;9.410;2023-05-31T04:54:00;14.50;62.10
4501;DHT22;2263;54.654;9.410;2023-05-31T04:56:28;14.50;62.20
4501;DHT22;2263;54.654;9.410;2023-05-31T04:58:55;14.50;62.50
4501;DHT22;2263;54.654;9.410;2023-05-31T05:01:23;14.50;62.50
4501;DHT22;2263;54.654;9.410;2023-05-31T05:03:52;14.50;62.50
4501;DHT22;2263;54.654;9.410;2023-05-31T05:06:20;14.40;62.60
4501;DHT22;2263;54.654;9.410;2023-05-31T05:08:52;14.40;62.90
4501;DHT22;2263;54.654;9.410;2023-05-31T05:11:20;14.40;62.80
4501;DHT22;2263;54.654;9.410;2023-05-31T05:13:47;14.40;63.00
4501;DHT22;2263;54.654;9.410;2023-05-31T05:16:15;14.50;63.20
4501;DHT22;2263;54.654;9.410;2023-05-31T05:18:43;14.50;63.30
4501;DHT22;2263;54.654;9.410;2023-05-31T05:21:10;14.50;63.40
4501;DHT22;2263;54.654;9.410;2023-05-31T05:23:38;14.40;63.30
4501;DHT22;2263;54.654;9.410;2023-05-31T05:26:06;14.50;63.60
4501;DHT22;2263;54.654;9.410;2023-05-31T05:28:34;14.40;63.70
4501;DHT22;2263;54.654;9.410;2023-05-31T05:31:02;14.40;64.50
4501;DHT22;2263;54.654;9.410;2023-05-31T05:33:31;14.40;64.00
4501;DHT22;2263;54.654;9.410;2023-05-31T05:35:58;14.40;64.10
4501;DHT22;2263;54.654;9.410;2023-05-31T05:38:26;14.50;64.30
4501;DHT22;2263;54.654;9.410;2023-05-31T05:40:54;14.40;64.10
4501;DHT22;2263;54.654;9.410;2023-05-31T05:43:21;14.50;64.50
4501;DHT22;2263;54.654;9.410;2023-05-31T05:45:49;14.50;64.40
4501;DHT22;2263;54.654;9.410;2023-05-31T05:48:17;14.50;64.70
4501;DHT22;2263;54.654;9.410;2023-05-31T05:50:45;14.50;64.60
4501;DHT22;2263;54.654;9.410;2023-05-31T05:53:15;14.50;64.70
4501;DHT22;2263;54.654;9.410;2023-05-31T05:55:52;14.50;64.70
4501;DHT22;2263;54.654;9.410;2023-05-31T05:58:20;14.50;65.00
4501;DHT22;2263;54.654;9.410;2023-05-31T06:00:48;14.50;65.50
4501;DHT22;2263;54.654;9.410;2023-05-31T06:03:16;14.50;65.50
4501;DHT22;2263;54.654;9.410;2023-05-31T06:05:44;14.50;65.40
4501;DHT22;2263;54.654;9.410;2023-05-31T06:08:12;14.50;65.70
4501;DHT22;2263;54.654;9.410;2023-05-31T06:10:39;14.50;65.60
4501;DHT22;2263;54.654;9.410;2023-05-31T06:13:08;14.50;65.80
4501;DHT22;2263;54.654;9.410;2023-05-31T06:15:36;14.60;66.00
4501;DHT22;2263;54.654;9.410;2023-05-31T06:18:03;14.60;66.10
4501;DHT22;2263;54.654;9.410;2023-05-31T06:20:31;14.60;66.40
4501;DHT22;2263;54.654;9.410;2023-05-31T06:22:59;14.60;66.30
4501;DHT22;2263;54.654;9.410;2023-05-31T06:25:26;14.60;66.20
4501;DHT22;2263;54.654;9.410;2023-05-31T06:27:54;14.60;67.00
4501;DHT22;2263;54.654;9.410;2023-05-31T06:30:24;14.70;66.70
4501;DHT22;2263;54.654;9.410;2023-05-31T06:32:52;14.70;66.70
4501;DHT22;2263;54.654;9.410;2023-05-31T06:35:20;14.70;66.70
4501;DHT22;2263;54.654;9.410;2023-05-31T06:37:49;14.70;67.00
4501;DHT22;2263;54.654;9.410;2023-05-31T06:40:19;14.70;67.20
4501;DHT22;2263;54.654;9.410;2023-05-31T06:42:46;14.70;68.10
4501;DHT22;2263;54.654;9.410;2023-05-31T06:45:14;14.70;67.40
4501;DHT22;2263;54.654;9.410;2023-05-31T06:47:42;14.80;67.50
4501;DHT22;2263;54.654;9.410;2023-05-31T06:50:11;14.80;68.00
4501;DHT22;2263;54.654;9.410;2023-05-31T06:52:39;14.80;67.90
4501;DHT22;2263;54.654;9.410;2023-05-31T06:55:08;14.80;68.00
4501;DHT22;2263;54.654;9.410;2023-05-31T06:57:35;14.80;68.50
4501;DHT22;2263;54.654;9.410;2023-05-31T07:00:04;14.90;69.10
4501;DHT22;2263;54.654;9.410;2023-05-31T07:02:32;14.90;68.70
4501;DHT22;2263;54.654;9.410;2023-05-31T07:05:00;14.90;68.80
4501;DHT22;2263;54.654;9.410;2023-05-31T07:07:28;15.00;69.00
4501;DHT22;2263;54.654;9.410;2023-05-31T07:09:55;15.00;68.70
4501;DHT22;2263;54.654;9.410;2023-05-31T07:12:23;15.00;68.80
4501;DHT22;2263;54.654;9.410;2023-05-31T07:14:51;15.00;68.80
4501;DHT22;2263;54.654;9.410;2023-05-31T07:17:18;15.00;68.70
4501;DHT22;2263;54.654;9.410;2023-05-31T07:19:47;15.10;68.50
4501;DHT22;2263;54.654;9.410;2023-05-31T07:22:16;15.10;68.60
4501;DHT22;2263;54.654;9.410;2023-05-31T07:24:44;15.10;68.70
4501;DHT22;2263;54.654;9.410;2023-05-31T07:27:13;15.10;68.90
4501;DHT22;2263;54.654;9.410;2023-05-31T07:29:40;15.20;68.90
4501;DHT22;2263;54.654;9.410;2023-05-31T07:32:08;15.20;68.90
4501;DHT22;2263;54.654;9.410;2023-05-31T07:34:39;15.20;69.10
4501;DHT22;2263;54.654;9.410;2023-05-31T07:37:27;15.20;69.50
4501;DHT22;2263;54.654;9.410;2023-05-31T07:39:54;15.30;70.00
4501;DHT22;2263;54.654;9.410;2023-05-31T07:42:22;15.30;69.40
4501;DHT22;2263;54.654;9.410;2023-05-31T07:44:50;15.30;69.90
4501;DHT22;2263;54.654;9.410;2023-05-31T07:47:17;15.30;70.00
4501;DHT22;2263;54.654;9.410;2023-05-31T07:49:47;15.40;69.70
4501;DHT22;2263;54.654;9.410;2023-05-31T07:52:18;15.40;69.70
4501;DHT22;2263;54.654;9.410;2023-05-31T07:54:49;15.40;70.10
4501;DHT22;2263;54.654;9.410;2023-05-31T07:57:17;15.50;70.10
4501;DHT22;2263;54.654;9.410;2023-05-31T07:59:45;15.50;69.80
4501;DHT22;2263;54.654;9.410;2023-05-31T08:02:13;15.50;69.90
4501;DHT22;2263;54.654;9.410;2023-05-31T08:04:41;15.50;69.90
4501;DHT22;2263;54.654;9.410;2023-05-31T08:07:08;15.60;70.00
4501;DHT22;2263;54.654;9.410;2023-05-31T08:09:36;15.60;69.90
4501;DHT22;2263;54.654;9.410;2023-05-31T08:12:04;15.60;70.20
4501;DHT22;2263;54.654;9.410;2023-05-31T08:14:33;15.60;70.20
4501;DHT22;2263;54.654;9.410;2023-05-31T08:17:01;15.70;70.20
4501;DHT22;2263;54.654;9.410;2023-05-31T08:19:30;15.70;70.10
4501;DHT22;2263;54.654;9.410;2023-05-31T08:21:57;15.70;70.10
4501;DHT22;2263;54.654;9.410;2023-05-31T08:24:25;15.80;70.30
4501;DHT22;2263;54.654;9.410;2023-05-31T08:26:53;15.80;70.60
4501;DHT22;2263;54.654;9.410;2023-05-31T08:29:20;15.90;70.50
4501;DHT22;2263;54.654;9.410;2023-05-31T08:31:48;15.90;70.40
4501;DHT22;2263;54.654;9.410;2023-05-31T08:34:16;15.90;70.50
4501;DHT22;2263;54.654;9.410;2023-05-31T08:36:44;15.90;70.50
4501;DHT22;2263;54.654;9.410;2023-05-31T08:39:12;16.00;70.50
4501;DHT22;2263;54.654;9.410;2023-05-31T08:42:03;16.00;70.60
4501;DHT22;2263;54.654;9.410;2023-05-31T08:44:32;16.10;71.00
4501;DHT22;2263;54.654;9.410;2023-05-31T08:47:27;16.10;70.80
4501;DHT22;2263;54.654;9.410;2023-05-31T08:49:58;16.10;71.00
4501;DHT22;2263;54.654;9.410;2023-05-31T08:52:29;16.20;70.90
4501;DHT22;2263;54.654;9.410;2023-05-31T08:54:59;16.20;71.70
4501;DHT22;2263;54.654;9.410;2023-05-31T08:57:26;16.20;70.90
4501;DHT22;2263;54.654;9.410;2023-05-31T08:59:57;16.30;71.10
4501;DHT22;2263;54.654;9.410;2023-05-31T09:02:25;16.30;71.10
4501;DHT22;2263;54.654;9.410;2023-05-31T09:04:55;16.40;71.30
4501;DHT22;2263;54.654;9.410;2023-05-31T09:07:23;16.40;71.20
4501;DHT22;2263;54.654;9.410;2023-05-31T09:09:51;16.40;71.10
4501;DHT22;2263;54.654;9.410;2023-05-31T09:12:18;16.40;71.00
4501;DHT22;2263;54.654;9.410;2023-05-31T09:14:46;16.50;71.10
4501;DHT22;2263;54.654;9.410;2023-05-31T09:17:14;16.50;71.00
4501;DHT22;2263;54.654;9.410;2023-05-31T09:19:50;16.50;71.10
4501;DHT22;2263;54.654;9.410;2023-05-31T09:22:20;16.60;71.30
4501;DHT22;2263;54.654;9.410;2023-05-31T09:25:06;16.60;71.20
4501;DHT22;2263;54.654;9.410;2023-05-31T09:27:38;16.70;71.20
4501;DHT22;2263;54.654;9.410;2023-05-31T09:30:10;16.70;71.10
4501;DHT22;2263;54.654;9.410;2023-05-31T09:32:38;16.70;71.10
4501;DHT22;2263;54.654;9.410;2023-05-31T09:35:14;16.80;71.10
4501;DHT22;2263;54.654;9.410;2023-05-31T09:37:43;16.80;71.00
4501;DHT22;2263;54.654;9.410;2023-05-31T09:40:24;16.90;71.00
4501;DHT22;2263;54.654;9.410;2023-05-31T09:42:53;16.90;71.20
4501;DHT22;2263;54.654;9.410;2023-05-31T09:45:22;16.90;71.20
4501;DHT22;2263;54.654;9.410;2023-05-31T09:47:50;16.90;71.20
4501;DHT22;2263;54.654;9.410;2023-05-31T09:50:19;17.00;71.20
4501;DHT22;2263;54.654;9.410;2023-05-31T09:52:49;17.10;71.20
4501;DHT22;2263;54.654;9.410;2023-05-31T09:55:19;17.10;71.20
4501;DHT22;2263;54.654;9.410;2023-05-31T09:57:47;17.10;71.30
4501;DHT22;2263;54.654;9.410;2023-05-31T10:00:16;17.20;71.30
4501;DHT22;2263;54.654;9.410;2023-05-31T10:02:52;17.20;71.20
4501;DHT22;2263;54.654;9.410;2023-05-31T10:05:21;17.20;71.30
4501;DHT22;2263;54.654;9.410;2023-05-31T10:07:50;17.40;72.00
4501;DHT22;2263;54.654;9.410;2023-05-31T10:10:18;17.40;71.30
4501;DHT22;2263;54.654;9.410;2023-05-31T10:12:57;17.40;71.20
4501;DHT22;2263;54.654;9.410;2023-05-31T10:15:31;17.40;71.40
4501;DHT22;2263;54.654;9.410;2023-05-31T10:18:15;17.50;71.70
4501;DHT22;2263;54.654;9.410;2023-05-31T10:20:52;17.50;71.40
4501;DHT22;2263;54.654;9.410;2023-05-31T10:23:22;17.50;71.50
4501;DHT22;2263;54.654;9.410;2023-05-31T10:28:27;17.60;72.10
4501;DHT22;2263;54.654;9.410;2023-05-31T10:30:56;17.60;71.50
4501;DHT22;2263;54.654;9.410;2023-05-31T10:33:28;17.60;71.20
4501;DHT22;2263;54.654;9.410;2023-05-31T10:35:59;17.60;71.30
4501;DHT22;2263;54.654;9.410;2023-05-31T10:38:55;17.70;71.40
4501;DHT22;2263;54.654;9.410;2023-05-31T10:41:32;17.70;71.20
4501;DHT22;2263;54.654;9.410;2023-05-31T10:44:09;17.70;71.20
4501;DHT22;2263;54.654;9.410;2023-05-31T10:46:38;17.80;71.30
4501;DHT22;2263;54.654;9.410;2023-05-31T10:49:09;17.80;71.20
4501;DHT22;2263;54.654;9.410;2023-05-31T10:51:39;17.80;71.10
4501;DHT22;2263;54.654;9.410;2023-05-31T10:54:08;17.90;71.30
4501;DHT22;2263;54.654;9.410;2023-05-31T10:56:36;17.90;71.10
4501;DHT22;2263;54.654;9.410;2023-05-31T10:59:08;17.90;71.10
4501;DHT22;2263;54.654;9.410;2023-05-31T11:01:38;18.00;71.10
4501;DHT22;2263;54.654;9.410;2023-05-31T11:04:19;18.00;71.00
4501;DHT22;2263;54.654;9.410;2023-05-31T11:06:52;18.10;71.00
4501;DHT22;2263;54.654;9.410;2023-05-31T11:09:21;18.10;70.90
4501;DHT22;2263;54.654;9.410;2023-05-31T11:11:50;18.10;70.80
4501;DHT22;2263;54.654;9.410;2023-05-31T11:14:31;18.20;70.80
4501;DHT22;2263;54.654;9.410;2023-05-31T11:19:36;18.20;70.60
4501;DHT22;2263;54.654;9.410;2023-05-31T11:22:15;18.20;70.50
4501;DHT22;2263;54.654;9.410;2023-05-31T11:24:49;18.30;70.50
4501;DHT22;2263;54.654;9.410;2023-05-31T11:27:37;18.30;70.50
4501;DHT22;2263;54.654;9.410;2023-05-31T11:30:09;18.40;70.50
4501;DHT22;2263;54.654;9.410;2023-05-31T11:35:06;18.40;70.30
4501;DHT22;2263;54.654;9.410;2023-05-31T11:37:37;18.50;70.40
4501;DHT22;2263;54.654;9.410;2023-05-31T11:40:06;18.50;70.30
4501;DHT22;2263;54.654;9.410;2023-05-31T11:42:36;18.50;70.20
4501;DHT22;2263;54.654;9.410;2023-05-31T11:45:06;18.50;70.20
4501;DHT22;2263;54.654;9.410;2023-05-31T11:47:49;18.60;70.10
4501;DHT22;2263;54.654;9.410;2023-05-31T11:50:19;18.60;70.00
4501;DHT22;2263;54.654;9.410;2023-05-31T11:52:47;18.60;69.90
4501;DHT22;2263;54.654;9.410;2023-05-31T11:55:16;18.60;69.80
4501;DHT22;2263;54.654;9.410;2023-05-31T11:57:48;18.70;69.90
4501;DHT22;2263;54.654;9.410;2023-05-31T12:00:19;18.70;69.90
4501;DHT22;2263;54.654;9.410;2023-05-31T12:02:57;18.80;69.90
4501;DHT22;2263;54.654;9.410;2023-05-31T12:05:25;18.80;69.80
4501;DHT22;2263;54.654;9.410;2023-05-31T12:07:54;18.80;69.70
4501;DHT22;2263;54.654;9.410;2023-05-31T12:10:28;18.90;69.80
4501;DHT22;2263;54.654;9.410;2023-05-31T12:12:58;18.90;69.60
4501;DHT22;2263;54.654;9.410;2023-05-31T12:15:30;18.90;69.40
4501;DHT22;2263;54.654;9.410;2023-05-31T12:18:01;18.90;69.30
4501;DHT22;2263;54.654;9.410;2023-05-31T12:20:29;19.00;69.30
4501;DHT22;2263;54.654;9.410;2023-05-31T12:23:14;19.00;69.30
4501;DHT22;2263;54.654;9.410;2023-05-31T12:25:47;19.00;69.00
4501;DHT22;2263;54.654;9.410;2023-05-31T12:28:19;19.10;68.90
4501;DHT22;2263;54.654;9.410;2023-05-31T12:30:48;19.10;68.90
4501;DHT22;2263;54.654;9.410;2023-05-31T12:33:15;19.10;68.80
4501;DHT22;2263;54.654;9.410;2023-05-31T12:35:45;19.10;68.70
4501;DHT22;2263;54.654;9.410;2023-05-31T12:38:14;19.20;68.90
4501;DHT22;2263;54.654;9.410;2023-05-31T12:40:43;19.20;68.80
4501;DHT22;2263;54.654;9.410;2023-05-31T12:43:13;19.30;68.50
4501;DHT22;2263;54.654;9.410;2023-05-31T12:45:48;19.40;68.30
4501;DHT22;2263;54.654;9.410;2023-05-31T12:48:22;19.30;68.40
4501;DHT22;2263;54.654;9.410;2023-05-31T12:50:51;19.30;68.40
4501;DHT22;2263;54.654;9.410;2023-05-31T12:53:21;19.30;68.50
4501;DHT22;2263;54.654;9.410;2023-05-31T12:55:48;19.30;68.30
4501;DHT22;2263;54.654;9.410;2023-05-31T12:58:16;19.30;68.40
4501;DHT22;2263;54.654;9.410;2023-05-31T13:00:44;19.30;68.30
4501;DHT22;2263;54.654;9.410;2023-05-31T13:03:12;19.30;68.20
4501;DHT22;2263;54.654;9.410;2023-05-31T13:05:43;19.30;68.20
4501;DHT22;2263;54.654;9.410;2023-05-31T13:08:11;19.30;68.20
4501;DHT22;2263;54.654;9.410;2023-05-31T13:10:38;19.30;68.10
4501;DHT22;2263;54.654;9.410;2023-05-31T13:13:06;19.30;68.10
4501;DHT22;2263;54.654;9.410;2023-05-31T13:15:34;19.40;68.20
4501;DHT22;2263;54.654;9.410;2023-05-31T13:18:01;19.40;68.00
4501;DHT22;2263;54.654;9.410;2023-05-31T13:20:29;19.40;68.00
4501;DHT22;2263;54.654;9.410;2023-05-31T13:22:58;19.40;67.80
4501;DHT22;2263;54.654;9.410;2023-05-31T13:25:25;19.40;67.80
4501;DHT22;2263;54.654;9.410;2023-05-31T13:27:53;19.50;67.90
4501;DHT22;2263;54.654;9.410;2023-05-31T13:30:21;19.50;67.90
4501;DHT22;2263;54.654;9.410;2023-05-31T13:32:49;19.50;67.60
4501;DHT22;2263;54.654;9.410;2023-05-31T13:35:17;19.50;67.60
4501;DHT22;2263;54.654;9.410;2023-05-31T13:37:45;19.50;67.60
4501;DHT22;2263;54.654;9.410;2023-05-31T13:40:13;19.50;67.50
4501;DHT22;2263;54.654;9.410;2023-05-31T13:42:40;19.50;67.40
4501;DHT22;2263;54.654;9.410;2023-05-31T13:45:09;19.60;67.60
4501;DHT22;2263;54.654;9.410;2023-05-31T13:47:36;19.60;67.50
4501;DHT22;2263;54.654;9.410;2023-05-31T13:50:05;19.60;67.40
4501;DHT22;2263;54.654;9.410;2023-05-31T13:52:32;19.60;67.40
4501;DHT22;2263;54.654;9.410;2023-05-31T13:55:00;19.60;67.50
4501;DHT22;2263;54.654;9.410;2023-05-31T13:57:28;19.70;67.60
4501;DHT22;2263;54.654;9.410;2023-05-31T13:59:56;19.70;67.60
4501;DHT22;2263;54.654;9.410;2023-05-31T14:02:26;19.70;67.60
4501;DHT22;2263;54.654;9.410;2023-05-31T14:04:55;19.70;67.60
4501;DHT22;2263;54.654;9.410;2023-05-31T14:07:23;19.70;67.60
4501;DHT22;2263;54.654;9.410;2023-05-31T14:09:50;19.70;67.50
4501;DHT22;2263;54.654;9.410;2023-05-31T14:12:18;19.70;67.60
4501;DHT22;2263;54.654;9.410;2023-05-31T14:14:46;19.70;67.60
4501;DHT22;2263;54.654;9.410;2023-05-31T14:17:14;19.80;67.70
4501;DHT22;2263;54.654;9.410;2023-05-31T14:19:42;19.70;67.60
4501;DHT22;2263;54.654;9.410;2023-05-31T14:22:09;19.80;67.50
4501;DHT22;2263;54.654;9.410;2023-05-31T14:24:37;19.80;67.70
4501;DHT22;2263;54.654;9.410;2023-05-31T14:27:05;19.80;67.70
4501;DHT22;2263;54.654;9.410;2023-05-31T14:29:33;19.80;67.70
4501;DHT22;2263;54.654;9.410;2023-05-31T14:32:00;19.80;67.80
4501;DHT22;2263;54.654;9.410;2023-05-31T14:34:28;19.80;68.00
4501;DHT22;2263;54.654;9.410;2023-05-31T14:36:56;19.90;68.00
4501;DHT22;2263;54.654;9.410;2023-05-31T14:39:24;19.80;67.70
4501;DHT22;2263;54.654;9.410;2023-05-31T14:42:04;19.90;67.70
4501;DHT22;2263;54.654;9.410;2023-05-31T14:44:33;19.90;67.80
4501;DHT22;2263;54.654;9.410;2023-05-31T14:47:03;19.80;67.60
4501;DHT22;2263;54.654;9.410;2023-05-31T14:49:30;19.80;67.80
4501;DHT22;2263;54.654;9.410;2023-05-31T14:51:58;19.80;67.60
4501;DHT22;2263;54.654;9.410;2023-05-31T14:54:26;19.90;67.90
4501;DHT22;2263;54.654;9.410;2023-05-31T14:56:54;19.80;67.50
4501;DHT22;2263;54.654;9.410;2023-05-31T14:59:21;19.80;67.60
4501;DHT22;2263;54.654;9.410;2023-05-31T15:01:50;19.80;68.00
4501;DHT22;2263;54.654;9.410;2023-05-31T15:04:18;19.80;67.90
4501;DHT22;2263;54.654;9.410;2023-05-31T15:06:46;19.80;67.90
4501;DHT22;2263;54.654;9.410;2023-05-31T15:09:13;19.80;68.00
4501;DHT22;2263;54.654;9.410;2023-05-31T15:11:41;19.90;68.00
4501;DHT22;2263;54.654;9.410;2023-05-31T15:14:08;19.80;68.00
4501;DHT22;2263;54.654;9.410;2023-05-31T15:16:37;19.80;68.20
4501;DHT22;2263;54.654;9.410;2023-05-31T15:19:05;19.90;68.30
4501;DHT22;2263;54.654;9.410;2023-05-31T15:21:32;19.80;68.00
4501;DHT22;2263;54.654;9.410;2023-05-31T15:24:00;19.80;68.40
4501;DHT22;2263;54.654;9.410;2023-05-31T15:26:28;19.80;68.40
4501;DHT22;2263;54.654;9.410;2023-05-31T15:28:55;19.90;68.60
4501;DHT22;2263;54.654;9.410;2023-05-31T15:31:23;19.80;68.50
4501;DHT22;2263;54.654;9.410;2023-05-31T15:33:51;19.80;68.40
4501;DHT22;2263;54.654;9.410;2023-05-31T15:36:19;19.80;68.50
4501;DHT22;2263;54.654;9.410;2023-05-31T15:38:48;19.80;68.60
4501;DHT22;2263;54.654;9.410;2023-05-31T15:41:16;19.90;68.50
4501;DHT22;2263;54.654;9.410;2023-05-31T15:43:44;19.90;68.70
4501;DHT22;2263;54.654;9.410;2023-05-31T15:46:11;19.90;68.80
4501;DHT22;2263;54.654;9.410;2023-05-31T15:48:39;19.90;68.70
4501;DHT22;2263;54.654;9.410;2023-05-31T15:51:09;19.80;68.60
4501;DHT22;2263;54.654;9.410;2023-05-31T15:53:37;19.90;68.80
4501;DHT22;2263;54.654;9.410;2023-05-31T15:56:04;19.90;68.90
4501;DHT22;2263;54.654;9.410;2023-05-31T15:58:32;19.90;68.70
4501;DHT22;2263;54.654;9.410;2023-05-31T16:01:00;19.90;69.00
4501;DHT22;2263;54.654;9.410;2023-05-31T16:03:28;19.90;69.10
4501;DHT22;2263;54.654;9.410;2023-05-31T16:05:57;19.90;68.90
4501;DHT22;2263;54.654;9.410;2023-05-31T16:08:25;19.90;69.00
4501;DHT22;2263;54.654;9.410;2023-05-31T16:10:52;19.90;69.00
4501;DHT22;2263;54.654;9.410;2023-05-31T16:13:20;19.90;69.00
4501;DHT22;2263;54.654;9.410;2023-05-31T16:15:48;19.90;69.00
4501;DHT22;2263;54.654;9.410;2023-05-31T16:18:15;19.90;69.00
4501;DHT22;2263;54.654;9.410;2023-05-31T16:20:43;19.90;68.80
4501;DHT22;2263;54.654;9.410;2023-05-31T16:23:11;19.90;69.10
4501;DHT22;2263;54.654;9.410;2023-05-31T16:25:38;19.90;68.80
4501;DHT22;2263;54.654;9.410;2023-05-31T16:28:06;19.90;69.00
4501;DHT22;2263;54.654;9.410;2023-05-31T16:30:34;19.90;68.80
4501;DHT22;2263;54.654;9.410;2023-05-31T16:33:02;19.90;68.70
4501;DHT22;2263;54.654;9.410;2023-05-31T16:35:30;19.90;68.70